sensor_id;sensor_type;location;lat;lon;timestamp;P1;durP1;ratioP1;P2;durP2;ratioP2
4636;SDS011;2331;48.806;9.140;2023-04-29T00:01:34;2.22;;;1.20;;
4636;SDS011;2331;48.806;9.140;2023-04-29T00:04:01;5.88;;;1.65;;
4636;SDS011;2331;48.806;9.140;2023-04-29T00:06:29;3.90;;;1.33;;
4636;SDS011;2331;48.806;9.140;2023-04-29T00:08:56;1.67;;;1.15;;
4636;SDS011;2331;48.806;9.140;2023-04-29T00:11:22;2.08;;;1.40;;
4636;SDS011;2331;48.806;9.140;2023-04-29T00:13:49;1.00;;;0.93;;
4636;SDS011;2331;48.806;9.140;2023-04-29T00:16:16;2.38;;;1.00;;
4636;SDS011;2331;48.806;9.140;2023-04-29T00:18:43;2.50;;;1.17;;
4636;SDS011;2331;48.806;9.140;2023-04-29T00:21:09;1.65;;;1.27;;
4636;SDS011;2331;48.806;9.140;2023-04-29T00:23:37;1.80;;;1.30;;
4636;SDS011;2331;48.806;9.140;2023-04-29T00:26:05;1.25;;;1.20;;
4636;SDS011;2331;48.806;9.140;2023-04-29T00:28:31;1.48;;;1.10;;
4636;SDS011;2331;48.806;9.140;2023-04-29T00:30:58;1.60;;;1.00;;
4636;SDS011;2331;48.806;9.140;2023-04-29T00:33:25;1.60;;;1.10;;
4636;SDS011;2331;48.806;9.140;2023-04-29T00:35:51;1.52;;;1.13;;
4636;SDS011;2331;48.806;9.140;2023-04-29T00:38:18;3.75;;;1.10;;
4636;SDS011;2331;48.806;9.140;2023-04-29T00:40:46;1.38;;;1.17;;
4636;SDS011;2331;48.806;9.140;2023-04-29T00:43:13;3.05;;;1.60;;
4636;SDS011;2331;48.806;9.140;2023-04-29T00:45:40;1.50;;;1.20;;
4636;SDS011;2331;48.806;9.140;2023-04-29T00:48:07;2.45;;;1.40;;
4636;SDS011;2331;48.806;9.140;2023-04-29T00:50:33;2.15;;;1.23;;
4636;SDS011;2331;48.806;9.140;2023-04-29T00:53:01;5.22;;;1.10;;
4636;SDS011;2331;48.806;9.140;2023-04-29T00:55:28;4.30;;;1.63;;
4636;SDS011;2331;48.806;9.140;2023-04-29T00:57:57;2.35;;;1.40;;
4636;SDS011;2331;48.806;9.140;2023-04-29T01:00:24;2.10;;;0.95;;
4636;SDS011;2331;48.806;9.140;2023-04-29T01:02:52;3.03;;;1.40;;
4636;SDS011;2331;48.806;9.140;2023-04-29T01:05:20;2.13;;;1.30;;
4636;SDS011;2331;48.806;9.140;2023-04-29T01:07:50;3.38;;;1.20;;
4636;SDS011;2331;48.806;9.140;2023-04-29T01:10:26;2.17;;;1.17;;
4636;SDS011;2331;48.806;9.140;2023-04-29T01:12:57;3.28;;;1.45;;
4636;SDS011;2331;48.806;9.140;2023-04-29T01:15:32;1.55;;;1.27;;
4636;SDS011;2331;48.806;9.140;2023-04-29T01:18:03;1.80;;;1.15;;
4636;SDS011;2331;48.806;9.140;2023-04-29T01:20:31;4.25;;;1.83;;
4636;SDS011;2331;48.806;9.140;2023-04-29T01:22:59;2.38;;;1.65;;
4636;SDS011;2331;48.806;9.140;2023-04-29T01:25:27;2.67;;;1.60;;
4636;SDS011;2331;48.806;9.140;2023-04-29T01:27:56;6.40;;;1.60;;
4636;SDS011;2331;48.806;9.140;2023-04-29T01:30:34;2.92;;;1.50;;
4636;SDS011;2331;48.806;9.140;2023-04-29T01:33:11;3.10;;;1.70;;
4636;SDS011;2331;48.806;9.140;2023-04-29T01:35:44;2.13;;;1.50;;
4636;SDS011;2331;48.806;9.140;2023-04-29T01:38:19;2.40;;;1.60;;
4636;SDS011;2331;48.806;9.140;2023-04-29T01:40:59;1.70;;;1.50;;
4636;SDS011;2331;48.806;9.140;2023-04-29T01:43:33;4.60;;;1.63;;
4636;SDS011;2331;48.806;9.140;2023-04-29T01:46:02;3.35;;;1.38;;
4636;SDS011;2331;48.806;9.140;2023-04-29T01:48:31;2.63;;;1.38;;
4636;SDS011;2331;48.806;9.140;2023-04-29T01:50:58;7.63;;;1.50;;
4636;SDS011;2331;48.806;9.140;2023-04-29T01:53:25;2.95;;;1.30;;
4636;SDS011;2331;48.806;9.140;2023-04-29T01:55:52;1.55;;;1.30;;
4636;SDS011;2331;48.806;9.140;2023-04-29T01:58:20;2.38;;;1.42;;
4636;SDS011;2331;48.806;9.140;2023-04-29T02:00:46;3.28;;;1.52;;
4636;SDS011;2331;48.806;9.140;2023-04-29T02:03:13;4.82;;;1.65;;
4636;SDS011;2331;48.806;9.140;2023-04-29T02:05:40;1.27;;;1.10;;
4636;SDS011;2331;48.806;9.140;2023-04-29T02:08:07;2.38;;;1.42;;
4636;SDS011;2331;48.806;9.140;2023-04-29T02:10:34;1.90;;;1.35;;
4636;SDS011;2331;48.806;9.140;2023-04-29T02:13:01;4.28;;;1.70;;
4636;SDS011;2331;48.806;9.140;2023-04-29T02:15:29;2.00;;;1.38;;
4636;SDS011;2331;48.806;9.140;2023-04-29T02:17:55;1.52;;;1.30;;
4636;SDS011;2331;48.806;9.140;2023-04-29T02:20:22;4.55;;;1.50;;
4636;SDS011;2331;48.806;9.140;2023-04-29T02:22:49;3.58;;;1.60;;
4636;SDS011;2331;48.806;9.140;2023-04-29T02:25:16;2.85;;;1.90;;
4636;SDS011;2331;48.806;9.140;2023-04-29T02:27:42;2.05;;;1.33;;
4636;SDS011;2331;48.806;9.140;2023-04-29T02:30:09;2.38;;;1.58;;
4636;SDS011;2331;48.806;9.140;2023-04-29T02:32:37;1.65;;;1.10;;
4636;SDS011;2331;48.806;9.140;2023-04-29T02:35:04;1.75;;;1.40;;
4636;SDS011;2331;48.806;9.140;2023-04-29T02:37:32;2.20;;;1.50;;
4636;SDS011;2331;48.806;9.140;2023-04-29T02:39:59;2.58;;;1.50;;
4636;SDS011;2331;48.806;9.140;2023-04-29T02:42:27;4.53;;;1.70;;
4636;SDS011;2331;48.806;9.140;2023-04-29T02:44:54;2.25;;;1.27;;
4636;SDS011;2331;48.806;9.140;2023-04-29T02:47:20;2.83;;;1.60;;
4636;SDS011;2331;48.806;9.140;2023-04-29T02:49:49;3.25;;;1.48;;
4636;SDS011;2331;48.806;9.140;2023-04-29T02:52:15;1.60;;;1.27;;
4636;SDS011;2331;48.806;9.140;2023-04-29T02:54:43;2.35;;;1.50;;
4636;SDS011;2331;48.806;9.140;2023-04-29T02:57:10;2.17;;;1.52;;
4636;SDS011;2331;48.806;9.140;2023-04-29T02:59:37;1.63;;;1.35;;
4636;SDS011;2331;48.806;9.140;2023-04-29T03:02:03;3.60;;;1.70;;
4636;SDS011;2331;48.806;9.140;2023-04-29T03:04:30;2.35;;;1.35;;
4636;SDS011;2331;48.806;9.140;2023-04-29T03:06:58;3.25;;;1.50;;
4636;SDS011;2331;48.806;9.140;2023-04-29T03:09:25;3.22;;;1.45;;
4636;SDS011;2331;48.806;9.140;2023-04-29T03:11:52;1.90;;;1.30;;
4636;SDS011;2331;48.806;9.140;2023-04-29T03:14:18;2.28;;;1.50;;
4636;SDS011;2331;48.806;9.140;2023-04-29T03:16:45;3.47;;;1.27;;
4636;SDS011;2331;48.806;9.140;2023-04-29T03:19:12;3.53;;;1.25;;
4636;SDS011;2331;48.806;9.140;2023-04-29T03:21:39;9.88;;;1.58;;
4636;SDS011;2331;48.806;9.140;2023-04-29T03:24:07;2.53;;;1.70;;
4636;SDS011;2331;48.806;9.140;2023-04-29T03:26:33;3.10;;;1.13;;
4636;SDS011;2331;48.806;9.140;2023-04-29T03:29:00;2.00;;;1.30;;
4636;SDS011;2331;48.806;9.140;2023-04-29T03:31:27;5.22;;;1.40;;
4636;SDS011;2331;48.806;9.140;2023-04-29T03:33:54;2.10;;;1.50;;
4636;SDS011;2331;48.806;9.140;2023-04-29T03:36:21;4.00;;;1.60;;
4636;SDS011;2331;48.806;9.140;2023-04-29T03:38:47;1.60;;;1.50;;
4636;SDS011;2331;48.806;9.140;2023-04-29T03:41:15;7.35;;;1.45;;
4636;SDS011;2331;48.806;9.140;2023-04-29T03:43:42;2.90;;;1.30;;
4636;SDS011;2331;48.806;9.140;2023-04-29T03:46:09;2.65;;;1.48;;
4636;SDS011;2331;48.806;9.140;2023-04-29T03:48:36;4.40;;;1.60;;
4636;SDS011;2331;48.806;9.140;2023-04-29T03:51:03;5.10;;;1.73;;
4636;SDS011;2331;48.806;9.140;2023-04-29T03:53:29;2.95;;;1.63;;
4636;SDS011;2331;48.806;9.140;2023-04-29T03:55:56;4.05;;;1.98;;
4636;SDS011;2331;48.806;9.140;2023-04-29T03:58:25;2.90;;;1.83;;
4636;SDS011;2331;48.806;9.140;2023-04-29T04:00:51;5.35;;;1.50;;
4636;SDS011;2331;48.806;9.140;2023-04-29T04:03:18;2.03;;;1.92;;
4636;SDS011;2331;48.806;9.140;2023-04-29T04:05:46;1.90;;;1.55;;
4636;SDS011;2331;48.806;9.140;2023-04-29T04:08:13;5.38;;;1.58;;
4636;SDS011;2331;48.806;9.140;2023-04-29T04:10:41;2.88;;;1.42;;
4636;SDS011;2331;48.806;9.140;2023-04-29T04:13:08;1.83;;;1.40;;
4636;SDS011;2331;48.806;9.140;2023-04-29T04:15:36;1.83;;;1.20;;
4636;SDS011;2331;48.806;9.140;2023-04-29T04:18:03;2.47;;;1.65;;
4636;SDS011;2331;48.806;9.140;2023-04-29T04:20:30;2.83;;;2.35;;
4636;SDS011;2331;48.806;9.140;2023-04-29T04:22:56;4.10;;;2.28;;
4636;SDS011;2331;48.806;9.140;2023-04-29T04:25:23;2.70;;;2.00;;
4636;SDS011;2331;48.806;9.140;2023-04-29T04:27:50;2.47;;;2.10;;
4636;SDS011;2331;48.806;9.140;2023-04-29T04:30:16;4.18;;;2.25;;
4636;SDS011;2331;48.806;9.140;2023-04-29T04:32:44;7.30;;;2.38;;
4636;SDS011;2331;48.806;9.140;2023-04-29T04:35:11;2.70;;;2.20;;
4636;SDS011;2331;48.806;9.140;2023-04-29T04:37:38;5.47;;;2.10;;
4636;SDS011;2331;48.806;9.140;2023-04-29T04:40:05;2.85;;;2.38;;
4636;SDS011;2331;48.806;9.140;2023-04-29T04:42:35;2.90;;;2.20;;
4636;SDS011;2331;48.806;9.140;2023-04-29T04:45:02;2.67;;;2.00;;
4636;SDS011;2331;48.806;9.140;2023-04-29T04:47:29;3.03;;;2.15;;
4636;SDS011;2331;48.806;9.140;2023-04-29T04:49:57;4.78;;;2.50;;
4636;SDS011;2331;48.806;9.140;2023-04-29T04:52:24;4.80;;;2.22;;
4636;SDS011;2331;48.806;9.140;2023-04-29T04:54:50;3.03;;;2.25;;
4636;SDS011;2331;48.806;9.140;2023-04-29T04:57:17;4.65;;;2.00;;
4636;SDS011;2331;48.806;9.140;2023-04-29T04:59:44;2.60;;;2.33;;
4636;SDS011;2331;48.806;9.140;2023-04-29T05:02:10;3.13;;;2.42;;
4636;SDS011;2331;48.806;9.140;2023-04-29T05:04:37;4.38;;;2.47;;
4636;SDS011;2331;48.806;9.140;2023-04-29T05:07:05;5.38;;;2.47;;
4636;SDS011;2331;48.806;9.140;2023-04-29T05:09:32;2.75;;;2.38;;
4636;SDS011;2331;48.806;9.140;2023-04-29T05:11:59;3.90;;;2.85;;
4636;SDS011;2331;48.806;9.140;2023-04-29T05:14:26;2.65;;;2.25;;
4636;SDS011;2331;48.806;9.140;2023-04-29T05:16:56;2.75;;;1.95;;
4636;SDS011;2331;48.806;9.140;2023-04-29T05:19:23;2.70;;;1.90;;
4636;SDS011;2331;48.806;9.140;2023-04-29T05:21:50;3.65;;;2.20;;
4636;SDS011;2331;48.806;9.140;2023-04-29T05:24:18;3.25;;;2.35;;
4636;SDS011;2331;48.806;9.140;2023-04-29T05:26:45;4.20;;;2.92;;
4636;SDS011;2331;48.806;9.140;2023-04-29T05:29:14;7.53;;;2.40;;
4636;SDS011;2331;48.806;9.140;2023-04-29T05:31:40;3.40;;;2.70;;
4636;SDS011;2331;48.806;9.140;2023-04-29T05:34:07;3.80;;;2.45;;
4636;SDS011;2331;48.806;9.140;2023-04-29T05:36:34;2.90;;;2.20;;
4636;SDS011;2331;48.806;9.140;2023-04-29T05:39:01;2.88;;;2.70;;
4636;SDS011;2331;48.806;9.140;2023-04-29T05:41:29;2.92;;;2.65;;
4636;SDS011;2331;48.806;9.140;2023-04-29T05:43:56;2.63;;;2.45;;
4636;SDS011;2331;48.806;9.140;2023-04-29T05:46:23;6.65;;;3.67;;
4636;SDS011;2331;48.806;9.140;2023-04-29T05:48:50;4.50;;;3.20;;
4636;SDS011;2331;48.806;9.140;2023-04-29T05:51:17;3.65;;;2.63;;
4636;SDS011;2331;48.806;9.140;2023-04-29T05:53:44;2.95;;;2.80;;
4636;SDS011;2331;48.806;9.140;2023-04-29T05:56:10;5.68;;;3.30;;
4636;SDS011;2331;48.806;9.140;2023-04-29T05:58:39;3.97;;;3.33;;
4636;SDS011;2331;48.806;9.140;2023-04-29T06:01:05;4.07;;;3.20;;
4636;SDS011;2331;48.806;9.140;2023-04-29T06:03:32;4.45;;;3.30;;
4636;SDS011;2331;48.806;9.140;2023-04-29T06:05:59;5.47;;;3.25;;
4636;SDS011;2331;48.806;9.140;2023-04-29T06:08:26;4.05;;;3.10;;
4636;SDS011;2331;48.806;9.140;2023-04-29T06:10:54;3.78;;;2.67;;
4636;SDS011;2331;48.806;9.140;2023-04-29T06:13:20;3.65;;;3.20;;
4636;SDS011;2331;48.806;9.140;2023-04-29T06:15:48;3.20;;;2.80;;
4636;SDS011;2331;48.806;9.140;2023-04-29T06:18:15;5.88;;;2.95;;
4636;SDS011;2331;48.806;9.140;2023-04-29T06:20:42;4.05;;;3.53;;
4636;SDS011;2331;48.806;9.140;2023-04-29T06:23:08;5.00;;;3.30;;
4636;SDS011;2331;48.806;9.140;2023-04-29T06:25:35;5.70;;;3.50;;
4636;SDS011;2331;48.806;9.140;2023-04-29T06:28:04;4.57;;;3.20;;
4636;SDS011;2331;48.806;9.140;2023-04-29T06:30:32;6.50;;;2.97;;
4636;SDS011;2331;48.806;9.140;2023-04-29T06:33:00;4.03;;;3.10;;
4636;SDS011;2331;48.806;9.140;2023-04-29T06:35:27;4.47;;;3.55;;
4636;SDS011;2331;48.806;9.140;2023-04-29T06:37:56;4.70;;;3.20;;
4636;SDS011;2331;48.806;9.140;2023-04-29T06:40:23;3.67;;;3.05;;
4636;SDS011;2331;48.806;9.140;2023-04-29T06:42:50;4.57;;;2.80;;
4636;SDS011;2331;48.806;9.140;2023-04-29T06:45:17;5.60;;;2.55;;
4636;SDS011;2331;48.806;9.140;2023-04-29T06:47:43;5.15;;;2.75;;
4636;SDS011;2331;48.806;9.140;2023-04-29T06:50:12;3.90;;;2.40;;
4636;SDS011;2331;48.806;9.140;2023-04-29T06:52:39;2.65;;;1.95;;
4636;SDS011;2331;48.806;9.140;2023-04-29T06:55:06;3.25;;;2.05;;
4636;SDS011;2331;48.806;9.140;2023-04-29T06:57:35;3.65;;;2.20;;
4636;SDS011;2331;48.806;9.140;2023-04-29T07:00:01;2.65;;;2.15;;
4636;SDS011;2331;48.806;9.140;2023-04-29T07:02:29;2.58;;;2.30;;
4636;SDS011;2331;48.806;9.140;2023-04-29T07:04:55;1.90;;;1.52;;
4636;SDS011;2331;48.806;9.140;2023-04-29T07:07:24;2.83;;;2.28;;
4636;SDS011;2331;48.806;9.140;2023-04-29T07:09:50;2.38;;;2.08;;
4636;SDS011;2331;48.806;9.140;2023-04-29T07:12:18;2.13;;;1.70;;
4636;SDS011;2331;48.806;9.140;2023-04-29T07:14:45;2.88;;;1.80;;
4636;SDS011;2331;48.806;9.140;2023-04-29T07:17:11;3.53;;;2.15;;
4636;SDS011;2331;48.806;9.140;2023-04-29T07:19:38;2.47;;;1.88;;
4636;SDS011;2331;48.806;9.140;2023-04-29T07:22:05;2.47;;;1.88;;
4636;SDS011;2331;48.806;9.140;2023-04-29T07:24:33;5.88;;;2.38;;
4636;SDS011;2331;48.806;9.140;2023-04-29T07:27:00;3.35;;;1.70;;
4636;SDS011;2331;48.806;9.140;2023-04-29T07:29:26;3.83;;;2.28;;
4636;SDS011;2331;48.806;9.140;2023-04-29T07:31:55;4.85;;;2.47;;
4636;SDS011;2331;48.806;9.140;2023-04-29T07:34:22;7.35;;;2.42;;
4636;SDS011;2331;48.806;9.140;2023-04-29T07:36:49;3.95;;;2.13;;
4636;SDS011;2331;48.806;9.140;2023-04-29T07:39:16;3.60;;;2.08;;
4636;SDS011;2331;48.806;9.140;2023-04-29T07:41:44;2.05;;;1.80;;
4636;SDS011;2331;48.806;9.140;2023-04-29T07:44:10;4.22;;;2.03;;
4636;SDS011;2331;48.806;9.140;2023-04-29T07:46:37;3.67;;;1.95;;
4636;SDS011;2331;48.806;9.140;2023-04-29T07:49:04;4.80;;;1.90;;
4636;SDS011;2331;48.806;9.140;2023-04-29T07:51:31;2.33;;;1.83;;
4636;SDS011;2331;48.806;9.140;2023-04-29T07:53:57;3.63;;;1.52;;
4636;SDS011;2331;48.806;9.140;2023-04-29T07:56:24;4.13;;;1.90;;
4636;SDS011;2331;48.806;9.140;2023-04-29T07:58:53;2.20;;;1.95;;
4636;SDS011;2331;48.806;9.140;2023-04-29T08:01:19;2.65;;;1.95;;
4636;SDS011;2331;48.806;9.140;2023-04-29T08:03:46;2.10;;;1.85;;
4636;SDS011;2331;48.806;9.140;2023-04-29T08:06:13;2.38;;;1.98;;
4636;SDS011;2331;48.806;9.140;2023-04-29T08:08:39;5.20;;;2.50;;
4636;SDS011;2331;48.806;9.140;2023-04-29T08:11:06;2.45;;;2.22;;
4636;SDS011;2331;48.806;9.140;2023-04-29T08:13:33;2.92;;;2.13;;
4636;SDS011;2331;48.806;9.140;2023-04-29T08:16:01;2.65;;;2.17;;
4636;SDS011;2331;48.806;9.140;2023-04-29T08:18:27;2.45;;;1.80;;
4636;SDS011;2331;48.806;9.140;2023-04-29T08:20:54;2.50;;;2.15;;
4636;SDS011;2331;48.806;9.140;2023-04-29T08:23:21;3.25;;;1.98;;
4636;SDS011;2331;48.806;9.140;2023-04-29T08:25:48;6.85;;;2.17;;
4636;SDS011;2331;48.806;9.140;2023-04-29T08:28:16;4.50;;;1.85;;
4636;SDS011;2331;48.806;9.140;2023-04-29T08:30:43;3.72;;;1.67;;
4636;SDS011;2331;48.806;9.140;2023-04-29T08:33:11;2.92;;;1.70;;
4636;SDS011;2331;48.806;9.140;2023-04-29T08:35:38;2.42;;;2.00;;
4636;SDS011;2331;48.806;9.140;2023-04-29T08:38:05;2.97;;;1.90;;
4636;SDS011;2331;48.806;9.140;2023-04-29T08:40:33;2.78;;;2.20;;
4636;SDS011;2331;48.806;9.140;2023-04-29T08:43:01;3.85;;;2.20;;
4636;SDS011;2331;48.806;9.140;2023-04-29T08:45:29;3.13;;;2.10;;
4636;SDS011;2331;48.806;9.140;2023-04-29T08:47:58;2.70;;;1.92;;
4636;SDS011;2331;48.806;9.140;2023-04-29T08:50:29;2.40;;;1.83;;
4636;SDS011;2331;48.806;9.140;2023-04-29T08:52:56;3.53;;;2.10;;
4636;SDS011;2331;48.806;9.140;2023-04-29T08:55:23;2.60;;;2.00;;
4636;SDS011;2331;48.806;9.140;2023-04-29T08:57:50;3.85;;;1.80;;
4636;SDS011;2331;48.806;9.140;2023-04-29T09:00:20;2.20;;;1.90;;
4636;SDS011;2331;48.806;9.140;2023-04-29T09:02:49;4.28;;;2.50;;
4636;SDS011;2331;48.806;9.140;2023-04-29T09:05:18;3.08;;;2.40;;
4636;SDS011;2331;48.806;9.140;2023-04-29T09:07:47;5.22;;;2.97;;
4636;SDS011;2331;48.806;9.140;2023-04-29T09:10:15;2.38;;;2.22;;
4636;SDS011;2331;48.806;9.140;2023-04-29T09:12:43;5.90;;;2.60;;
4636;SDS011;2331;48.806;9.140;2023-04-29T09:15:10;4.93;;;2.50;;
4636;SDS011;2331;48.806;9.140;2023-04-29T09:17:37;4.35;;;2.40;;
4636;SDS011;2331;48.806;9.140;2023-04-29T09:20:19;4.45;;;2.90;;
4636;SDS011;2331;48.806;9.140;2023-04-29T09:22:53;4.43;;;2.97;;
4636;SDS011;2331;48.806;9.140;2023-04-29T09:25:21;3.35;;;2.95;;
4636;SDS011;2331;48.806;9.140;2023-04-29T09:27:49;3.22;;;2.47;;
4636;SDS011;2331;48.806;9.140;2023-04-29T09:30:15;5.57;;;2.55;;
4636;SDS011;2331;48.806;9.140;2023-04-29T09:32:43;2.83;;;2.42;;
4636;SDS011;2331;48.806;9.140;2023-04-29T09:35:20;3.58;;;2.65;;
4636;SDS011;2331;48.806;9.140;2023-04-29T09:37:47;3.00;;;2.40;;
4636;SDS011;2331;48.806;9.140;2023-04-29T09:40:27;2.90;;;2.30;;
4636;SDS011;2331;48.806;9.140;2023-04-29T09:42:55;3.50;;;2.33;;
4636;SDS011;2331;48.806;9.140;2023-04-29T09:45:32;3.35;;;2.50;;
4636;SDS011;2331;48.806;9.140;2023-04-29T09:48:00;4.10;;;2.00;;
4636;SDS011;2331;48.806;9.140;2023-04-29T09:50:28;3.60;;;2.60;;
4636;SDS011;2331;48.806;9.140;2023-04-29T09:52:55;3.90;;;2.92;;
4636;SDS011;2331;48.806;9.140;2023-04-29T09:55:22;2.70;;;2.35;;
4636;SDS011;2331;48.806;9.140;2023-04-29T09:57:50;5.55;;;2.38;;
4636;SDS011;2331;48.806;9.140;2023-04-29T10:00:17;2.92;;;2.25;;
4636;SDS011;2331;48.806;9.140;2023-04-29T10:02:44;2.95;;;2.10;;
4636;SDS011;2331;48.806;9.140;2023-04-29T10:05:13;3.83;;;1.95;;
4636;SDS011;2331;48.806;9.140;2023-04-29T10:07:40;3.83;;;2.45;;
4636;SDS011;2331;48.806;9.140;2023-04-29T10:10:08;2.30;;;1.92;;
4636;SDS011;2331;48.806;9.140;2023-04-29T10:12:36;3.30;;;2.40;;
4636;SDS011;2331;48.806;9.140;2023-04-29T10:15:07;2.53;;;1.90;;
4636;SDS011;2331;48.806;9.140;2023-04-29T10:17:45;2.85;;;2.22;;
4636;SDS011;2331;48.806;9.140;2023-04-29T10:20:18;2.83;;;2.40;;
4636;SDS011;2331;48.806;9.140;2023-04-29T10:22:48;2.67;;;2.20;;
4636;SDS011;2331;48.806;9.140;2023-04-29T10:25:16;3.03;;;2.60;;
4636;SDS011;2331;48.806;9.140;2023-04-29T10:27:44;2.45;;;1.88;;
4636;SDS011;2331;48.806;9.140;2023-04-29T10:30:13;2.72;;;2.10;;
4636;SDS011;2331;48.806;9.140;2023-04-29T10:32:40;3.38;;;1.95;;
4636;SDS011;2331;48.806;9.140;2023-04-29T10:35:08;2.90;;;2.28;;
4636;SDS011;2331;48.806;9.140;2023-04-29T10:37:35;5.18;;;2.67;;
4636;SDS011;2331;48.806;9.140;2023-04-29T10:40:06;5.38;;;2.30;;
4636;SDS011;2331;48.806;9.140;2023-04-29T10:42:41;5.85;;;2.90;;
4636;SDS011;2331;48.806;9.140;2023-04-29T10:45:17;3.70;;;2.80;;
4636;SDS011;2331;48.806;9.140;2023-04-29T10:50:39;4.25;;;2.58;;
4636;SDS011;2331;48.806;9.140;2023-04-29T10:53:24;3.67;;;2.38;;
4636;SDS011;2331;48.806;9.140;2023-04-29T10:55:52;3.33;;;2.42;;
4636;SDS011;2331;48.806;9.140;2023-04-29T11:01:03;2.60;;;2.05;;
4636;SDS011;2331;48.806;9.140;2023-04-29T11:03:44;2.20;;;1.75;;
4636;SDS011;2331;48.806;9.140;2023-04-29T11:06:18;3.58;;;2.00;;
4636;SDS011;2331;48.806;9.140;2023-04-29T11:08:58;3.20;;;2.47;;
4636;SDS011;2331;48.806;9.140;2023-04-29T11:11:26;3.40;;;2.42;;
4636;SDS011;2331;48.806;9.140;2023-04-29T11:14:06;2.53;;;2.10;;
4636;SDS011;2331;48.806;9.140;2023-04-29T11:16:35;3.20;;;1.85;;
4636;SDS011;2331;48.806;9.140;2023-04-29T11:19:03;2.40;;;1.70;;
4636;SDS011;2331;48.806;9.140;2023-04-29T11:21:32;2.42;;;1.75;;
4636;SDS011;2331;48.806;9.140;2023-04-29T11:23:59;2.10;;;1.50;;
4636;SDS011;2331;48.806;9.140;2023-04-29T11:26:27;4.57;;;1.80;;
4636;SDS011;2331;48.806;9.140;2023-04-29T11:28:53;2.95;;;1.80;;
4636;SDS011;2331;48.806;9.140;2023-04-29T11:31:25;3.58;;;2.10;;
4636;SDS011;2331;48.806;9.140;2023-04-29T11:33:54;4.32;;;2.40;;
4636;SDS011;2331;48.806;9.140;2023-04-29T11:36:21;3.70;;;2.30;;
4636;SDS011;2331;48.806;9.140;2023-04-29T11:38:48;4.60;;;2.35;;
4636;SDS011;2331;48.806;9.140;2023-04-29T11:41:15;2.97;;;2.20;;
4636;SDS011;2331;48.806;9.140;2023-04-29T11:43:44;4.05;;;2.50;;
4636;SDS011;2331;48.806;9.140;2023-04-29T11:46:11;3.88;;;2.83;;
4636;SDS011;2331;48.806;9.140;2023-04-29T11:48:44;4.07;;;3.20;;
4636;SDS011;2331;48.806;9.140;2023-04-29T11:51:16;3.45;;;2.50;;
4636;SDS011;2331;48.806;9.140;2023-04-29T11:53:45;5.68;;;2.40;;
4636;SDS011;2331;48.806;9.140;2023-04-29T11:56:11;3.95;;;2.60;;
4636;SDS011;2331;48.806;9.140;2023-04-29T11:58:40;3.80;;;2.55;;
4636;SDS011;2331;48.806;9.140;2023-04-29T12:01:07;4.93;;;3.50;;
4636;SDS011;2331;48.806;9.140;2023-04-29T12:03:34;5.22;;;3.60;;
4636;SDS011;2331;48.806;9.140;2023-04-29T12:06:01;7.05;;;3.83;;
4636;SDS011;2331;48.806;9.140;2023-04-29T12:08:29;5.05;;;3.50;;
4636;SDS011;2331;48.806;9.140;2023-04-29T12:10:58;6.72;;;3.97;;
4636;SDS011;2331;48.806;9.140;2023-04-29T12:13:26;5.28;;;3.75;;
4636;SDS011;2331;48.806;9.140;2023-04-29T12:15:55;8.75;;;4.15;;
4636;SDS011;2331;48.806;9.140;2023-04-29T12:18:23;10.40;;;4.07;;
4636;SDS011;2331;48.806;9.140;2023-04-29T12:20:51;7.60;;;4.32;;
4636;SDS011;2331;48.806;9.140;2023-04-29T12:23:20;6.47;;;4.32;;
4636;SDS011;2331;48.806;9.140;2023-04-29T12:25:50;5.72;;;4.80;;
4636;SDS011;2331;48.806;9.140;2023-04-29T12:28:18;6.22;;;4.65;;
4636;SDS011;2331;48.806;9.140;2023-04-29T12:30:45;5.93;;;4.65;;
4636;SDS011;2331;48.806;9.140;2023-04-29T12:33:14;6.07;;;4.70;;
4636;SDS011;2331;48.806;9.140;2023-04-29T12:35:44;7.88;;;4.60;;
4636;SDS011;2331;48.806;9.140;2023-04-29T12:38:11;7.78;;;5.13;;
4636;SDS011;2331;48.806;9.140;2023-04-29T12:40:43;7.90;;;5.32;;
4636;SDS011;2331;48.806;9.140;2023-04-29T12:43:11;8.10;;;6.07;;
4636;SDS011;2331;48.806;9.140;2023-04-29T12:45:38;8.07;;;5.40;;
4636;SDS011;2331;48.806;9.140;2023-04-29T12:48:05;7.57;;;5.40;;
4636;SDS011;2331;48.806;9.140;2023-04-29T12:50:33;9.48;;;5.93;;
4636;SDS011;2331;48.806;9.140;2023-04-29T12:53:01;10.32;;;6.13;;
4636;SDS011;2331;48.806;9.140;2023-04-29T12:55:30;7.95;;;5.72;;
4636;SDS011;2331;48.806;9.140;2023-04-29T12:57:58;9.40;;;5.72;;
4636;SDS011;2331;48.806;9.140;2023-04-29T13:00:26;10.18;;;6.28;;
4636;SDS011;2331;48.806;9.140;2023-04-29T13:02:53;7.97;;;5.10;;
4636;SDS011;2331;48.806;9.140;2023-04-29T13:05:19;7.72;;;5.45;;
4636;SDS011;2331;48.806;9.140;2023-04-29T13:07:46;7.47;;;4.70;;
4636;SDS011;2331;48.806;9.140;2023-04-29T13:10:13;9.25;;;5.63;;
4636;SDS011;2331;48.806;9.140;2023-04-29T13:12:40;7.40;;;5.30;;
4636;SDS011;2331;48.806;9.140;2023-04-29T13:15:07;7.93;;;5.78;;
4636;SDS011;2331;48.806;9.140;2023-04-29T13:17:36;6.32;;;5.13;;
4636;SDS011;2331;48.806;9.140;2023-04-29T13:20:04;8.25;;;5.72;;
4636;SDS011;2331;48.806;9.140;2023-04-29T13:22:32;9.48;;;6.18;;
4636;SDS011;2331;48.806;9.140;2023-04-29T13:24:59;8.65;;;5.85;;
4636;SDS011;2331;48.806;9.140;2023-04-29T13:27:25;9.43;;;6.20;;
4636;SDS011;2331;48.806;9.140;2023-04-29T13:29:52;9.23;;;5.85;;
4636;SDS011;2331;48.806;9.140;2023-04-29T13:32:19;8.88;;;6.25;;
4636;SDS011;2331;48.806;9.140;2023-04-29T13:34:48;8.70;;;5.93;;
4636;SDS011;2331;48.806;9.140;2023-04-29T13:37:15;7.32;;;5.10;;
4636;SDS011;2331;48.806;9.140;2023-04-29T13:39:42;9.60;;;6.47;;
4636;SDS011;2331;48.806;9.140;2023-04-29T13:42:09;10.90;;;6.70;;
4636;SDS011;2331;48.806;9.140;2023-04-29T13:44:35;10.27;;;6.55;;
4636;SDS011;2331;48.806;9.140;2023-04-29T13:47:02;10.98;;;6.50;;
4636;SDS011;2331;48.806;9.140;2023-04-29T13:49:30;9.00;;;6.05;;
4636;SDS011;2331;48.806;9.140;2023-04-29T13:51:58;7.97;;;5.80;;
4636;SDS011;2331;48.806;9.140;2023-04-29T13:54:25;9.55;;;6.05;;
4636;SDS011;2331;48.806;9.140;2023-04-29T13:56:52;9.35;;;6.63;;
4636;SDS011;2331;48.806;9.140;2023-04-29T13:59:18;8.88;;;6.13;;
4636;SDS011;2331;48.806;9.140;2023-04-29T14:01:45;10.20;;;7.00;;
4636;SDS011;2331;48.806;9.140;2023-04-29T14:04:12;11.25;;;5.90;;
4636;SDS011;2331;48.806;9.140;2023-04-29T14:06:39;10.15;;;5.88;;
4636;SDS011;2331;48.806;9.140;2023-04-29T14:09:09;9.77;;;6.30;;
4636;SDS011;2331;48.806;9.140;2023-04-29T14:11:36;10.13;;;6.00;;
4636;SDS011;2331;48.806;9.140;2023-04-29T14:14:03;12.13;;;6.10;;
4636;SDS011;2331;48.806;9.140;2023-04-29T14:16:29;7.93;;;5.70;;
4636;SDS011;2331;48.806;9.140;2023-04-29T14:18:56;9.25;;;5.97;;
4636;SDS011;2331;48.806;9.140;2023-04-29T14:21:23;8.90;;;5.95;;
4636;SDS011;2331;48.806;9.140;2023-04-29T14:23:50;13.30;;;7.25;;
4636;SDS011;2331;48.806;9.140;2023-04-29T14:26:18;9.52;;;5.78;;
4636;SDS011;2331;48.806;9.140;2023-04-29T14:28:45;8.98;;;5.97;;
4636;SDS011;2331;48.806;9.140;2023-04-29T14:31:11;10.10;;;6.22;;
4636;SDS011;2331;48.806;9.140;2023-04-29T14:33:39;9.80;;;6.15;;
4636;SDS011;2331;48.806;9.140;2023-04-29T14:36:05;10.80;;;6.15;;
4636;SDS011;2331;48.806;9.140;2023-04-29T14:38:32;7.20;;;5.22;;
4636;SDS011;2331;48.806;9.140;2023-04-29T14:40:59;8.50;;;5.95;;
4636;SDS011;2331;48.806;9.140;2023-04-29T14:43:27;10.85;;;5.90;;
4636;SDS011;2331;48.806;9.140;2023-04-29T14:45:54;8.25;;;6.05;;
4636;SDS011;2331;48.806;9.140;2023-04-29T14:48:21;7.93;;;5.95;;
4636;SDS011;2331;48.806;9.140;2023-04-29T14:50:47;8.90;;;6.05;;
4636;SDS011;2331;48.806;9.140;2023-04-29T14:53:14;9.85;;;6.82;;
4636;SDS011;2331;48.806;9.140;2023-04-29T14:55:41;8.38;;;6.10;;
4636;SDS011;2331;48.806;9.140;2023-04-29T14:58:08;8.48;;;6.03;;
4636;SDS011;2331;48.806;9.140;2023-04-29T15:00:36;9.20;;;5.60;;
4636;SDS011;2331;48.806;9.140;2023-04-29T15:03:02;11.30;;;5.95;;
4636;SDS011;2331;48.806;9.140;2023-04-29T15:05:30;8.65;;;6.20;;
4636;SDS011;2331;48.806;9.140;2023-04-29T15:07:57;10.50;;;6.55;;
4636;SDS011;2331;48.806;9.140;2023-04-29T15:10:25;12.45;;;6.55;;
4636;SDS011;2331;48.806;9.140;2023-04-29T15:12:52;10.75;;;6.18;;
4636;SDS011;2331;48.806;9.140;2023-04-29T15:15:19;8.73;;;5.95;;
4636;SDS011;2331;48.806;9.140;2023-04-29T15:17:47;11.15;;;5.95;;
4636;SDS011;2331;48.806;9.140;2023-04-29T15:20:14;10.43;;;6.70;;
4636;SDS011;2331;48.806;9.140;2023-04-29T15:22:41;7.97;;;5.80;;
4636;SDS011;2331;48.806;9.140;2023-04-29T15:25:08;10.18;;;6.72;;